Time;durP1;ratioP1;P1;durP2;ratioP2;P2;SDS_P1;SDS_P2;PMS_P1;PMS_P2;Temp;Humidity;BMP_temperature;BMP_pressure;BME280_temperature;BME280_humidity;BME280_pressure;Samples;Min_cycle;Max_cycle;Signal;HPM_P1;HPM_P2
2021/04/07 00:01:30;;;;;;;0.50;0.43;;;3.10;99.90;;;;;;5120454;27;20577;-66
2021/04/07 00:03:55;;;;;;;1.60;1.20;;;3.20;99.90;;;;;;5138597;27;20611;-65
2021/04/07 00:06:21;;;;;;;0.77;0.60;;;3.20;99.90;;;;;;5138994;27;20182;-67
2021/04/07 00:08:49;;;;;;;0.97;0.97;;;3.20;99.90;;;;;;5138560;27;20197;-65
2021/04/07 00:11:16;;;;;;;2.78;1.83;;;3.20;99.90;;;;;;5138509;27;20266;-67
2021/04/07 00:13:42;;;;;;;1.30;1.10;;;3.30;99.90;;;;;;5120013;27;20195;-65
2021/04/07 00:16:08;;;;;;;1.90;1.33;;;3.30;99.90;;;;;;5138367;27;20214;-66
2021/04/07 00:18:33;;;;;;;1.67;1.57;;;3.20;99.90;;;;;;5138412;27;20419;-65
2021/04/07 00:20:59;;;;;;;1.30;0.90;;;3.20;99.90;;;;;;5138616;27;20167;-66
2021/04/07 00:23:25;;;;;;;0.90;0.80;;;3.10;99.90;;;;;;5138393;27;20556;-65
2021/04/07 00:25:50;;;;;;;1.00;0.90;;;3.10;99.90;;;;;;5138384;27;20246;-66
2021/04/07 00:28:21;;;;;;;1.67;1.57;;;3.10;99.90;;;;;;5138179;27;20202;-66
2021/04/07 00:30:48;;;;;;;3.33;1.83;;;3.00;99.90;;;;;;5138415;27;20206;-67
2021/04/07 00:33:16;;;;;;;1.80;1.55;;;2.90;99.90;;;;;;5138220;27;20219;-66
2021/04/07 00:35:42;;;;;;;4.47;1.55;;;2.90;99.90;;;;;;5138131;27;20197;-67
2021/04/07 00:38:08;;;;;;;2.25;1.30;;;2.80;99.90;;;;;;5119529;27;20199;-67
2021/04/07 00:40:34;;;;;;;1.57;0.87;;;2.70;99.90;;;;;;5119619;27;20228;-65
2021/04/07 00:43:01;;;;;;;1.77;1.23;;;2.70;99.90;;;;;;5137942;27;20191;-67
2021/04/07 00:45:27;;;;;;;1.58;1.48;;;2.50;99.90;;;;;;5138025;27;20407;-67
2021/04/07 00:47:54;;;;;;;1.27;0.90;;;2.40;99.90;;;;;;5137813;27;20195;-66
2021/04/07 00:50:22;;;;;;;1.20;1.08;;;2.40;99.90;;;;;;5137923;27;20290;-66
2021/04/07 00:52:48;;;;;;;1.85;1.15;;;2.40;99.90;;;;;;5137678;27;20186;-66
2021/04/07 00:55:16;;;;;;;1.60;1.50;;;2.30;99.90;;;;;;5119383;27;20187;-67
2021/04/07 00:57:42;;;;;;;3.63;1.30;;;2.30;99.90;;;;;;5137513;27;20579;-65
2021/04/07 01:00:09;;;;;;;1.60;1.45;;;2.20;99.90;;;;;;5136987;27;20175;-66
2021/04/07 01:02:35;;;;;;;0.82;0.80;;;2.20;99.90;;;;;;5119042;27;20224;-66
2021/04/07 01:05:01;;;;;;;1.93;1.17;;;2.10;99.90;;;;;;5137512;27;20566;-66
2021/04/07 01:07:27;;;;;;;1.17;1.08;;;2.10;99.90;;;;;;5137563;27;20637;-65
2021/04/07 01:09:53;;;;;;;2.60;1.40;;;2.10;99.90;;;;;;5137253;27;20182;-68
2021/04/07 01:12:18;;;;;;;1.60;1.50;;;2.10;99.90;;;;;;5137432;27;20175;-67
2021/04/07 01:14:44;;;;;;;2.97;1.00;;;2.00;99.90;;;;;;5137325;27;20203;-66
2021/04/07 01:17:10;;;;;;;1.73;1.63;;;2.00;99.90;;;;;;5137702;27;20290;-65
2021/04/07 01:19:36;;;;;;;1.57;1.37;;;2.00;99.90;;;;;;5137196;27;20290;-67
2021/04/07 01:22:03;;;;;;;1.13;0.85;;;2.00;99.90;;;;;;5138014;27;20467;-67
2021/04/07 01:24:32;;;;;;;1.60;1.50;;;1.90;99.90;;;;;;5118734;27;20199;-67
2021/04/07 01:26:58;;;;;;;0.50;0.50;;;1.90;99.90;;;;;;5137585;27;20174;-65
2021/04/07 01:29:24;;;;;;;3.70;2.03;;;1.90;99.90;;;;;;5136991;27;20549;-66
2021/04/07 01:31:54;;;;;;;2.73;1.03;;;1.90;99.90;;;;;;5118687;27;20179;-65
2021/04/07 01:34:29;;;;;;;2.47;1.27;;;1.90;99.90;;;;;;5118514;27;20576;-65
2021/04/07 01:36:56;;;;;;;3.88;2.08;;;1.90;99.90;;;;;;5118670;27;20278;-65
2021/04/07 01:39:26;;;;;;;4.10;1.50;;;1.80;99.90;;;;;;5136843;27;20282;-66
2021/04/07 01:41:52;;;;;;;1.77;1.42;;;1.80;99.90;;;;;;5136738;27;20175;-66
2021/04/07 01:44:19;;;;;;;1.30;1.15;;;1.70;99.90;;;;;;5136728;27;20209;-66
2021/04/07 01:46:46;;;;;;;4.25;2.38;;;1.60;99.90;;;;;;5137062;27;20179;-66
2021/04/07 01:49:12;;;;;;;3.17;1.50;;;1.50;99.90;;;;;;5136447;27;20318;-67
2021/04/07 01:51:38;;;;;;;1.35;1.10;;;1.50;99.90;;;;;;5137062;27;20186;-67
2021/04/07 01:54:06;;;;;;;2.53;1.90;;;1.40;99.90;;;;;;5136623;27;20191;-66
2021/04/07 01:56:32;;;;;;;2.38;2.05;;;1.40;99.90;;;;;;5136719;27;20222;-65
2021/04/07 01:59:05;;;;;;;1.70;1.60;;;1.30;99.90;;;;;;5136461;27;20588;-66
2021/04/07 02:01:35;;;;;;;3.00;1.85;;;1.20;99.90;;;;;;5118401;27;20454;-66
2021/04/07 02:04:01;;;;;;;1.35;1.25;;;1.20;99.90;;;;;;5136393;27;20248;-67
2021/04/07 02:06:26;;;;;;;2.33;2.00;;;1.10;99.90;;;;;;5136742;27;20556;-65
2021/04/07 02:08:52;;;;;;;10.13;2.13;;;1.00;99.90;;;;;;5136291;27;20199;-66
2021/04/07 02:11:17;;;;;;;2.40;2.20;;;1.10;99.90;;;;;;5135981;27;20644;-66
2021/04/07 02:13:43;;;;;;;4.33;3.07;;;1.00;99.90;;;;;;5135454;27;20267;-66
2021/04/07 02:16:14;;;;;;;3.90;1.73;;;1.00;99.90;;;;;;5117813;27;20219;-66
2021/04/07 02:18:41;;;;;;;7.65;1.75;;;1.00;99.90;;;;;;5136099;27;20183;-66
2021/04/07 02:21:07;;;;;;;3.80;1.70;;;0.90;99.90;;;;;;5136314;27;20251;-65
2021/04/07 02:23:34;;;;;;;2.05;1.85;;;0.90;99.90;;;;;;5135952;27;20199;-66
2021/04/07 02:26:00;;;;;;;3.20;1.48;;;0.80;99.90;;;;;;5136309;27;20254;-66
2021/04/07 02:28:26;;;;;;;2.00;1.53;;;0.80;99.90;;;;;;5135924;27;20211;-65
2021/04/07 02:30:51;;;;;;;1.93;1.80;;;0.70;99.90;;;;;;5135959;27;20214;-66
2021/04/07 02:33:18;;;;;;;2.27;1.20;;;0.70;99.90;;;;;;5117396;27;21006;-65
2021/04/07 02:35:43;;;;;;;4.07;2.95;;;0.70;99.90;;;;;;5135757;27;20519;-65
2021/04/07 02:38:09;;;;;;;2.10;1.80;;;0.70;99.90;;;;;;5135756;27;20191;-65
2021/04/07 02:40:35;;;;;;;0.98;0.98;;;0.70;99.90;;;;;;5135837;27;20500;-66
2021/04/07 02:43:01;;;;;;;1.63;1.53;;;0.60;99.90;;;;;;5135544;27;20282;-67
2021/04/07 02:45:27;;;;;;;2.10;1.70;;;0.50;99.90;;;;;;5135660;27;20459;-67
2021/04/07 02:47:53;;;;;;;0.98;0.98;;;0.50;99.90;;;;;;5135451;27;20191;-65
2021/04/07 02:50:18;;;;;;;1.70;0.80;;;0.50;99.90;;;;;;5135412;27;20223;-66
2021/04/07 02:52:44;;;;;;;4.93;1.77;;;0.40;99.90;;;;;;5135378;27;20191;-68
2021/04/07 02:55:10;;;;;;;1.30;1.20;;;0.40;99.90;;;;;;5135438;27;20167;-65
2021/04/07 02:57:36;;;;;;;2.13;1.35;;;0.30;99.90;;;;;;5135154;27;20254;-66
2021/04/07 03:00:04;;;;;;;1.47;1.37;;;0.30;99.90;;;;;;5135313;27;20198;-67
2021/04/07 03:02:31;;;;;;;2.10;2.00;;;0.20;99.90;;;;;;5116933;27;20415;-65
2021/04/07 03:04:57;;;;;;;1.83;1.15;;;0.30;99.90;;;;;;5135253;27;20540;-65
2021/04/07 03:07:23;;;;;;;1.73;1.63;;;0.20;99.90;;;;;;5135280;27;20182;-67
2021/04/07 03:09:48;;;;;;;2.70;1.60;;;0.20;99.90;;;;;;5135129;27;20431;-65
2021/04/07 03:12:14;;;;;;;5.93;2.67;;;0.10;99.90;;;;;;5116940;27;20175;-66
2021/04/07 03:14:40;;;;;;;2.65;1.45;;;0.10;99.90;;;;;;5116485;27;20203;-65
2021/04/07 03:17:05;;;;;;;1.97;1.83;;;0.10;99.90;;;;;;5135466;27;20568;-66
2021/04/07 03:19:31;;;;;;;3.40;1.37;;;0.10;99.90;;;;;;5134963;27;20675;-66
2021/04/07 03:21:57;;;;;;;1.90;1.80;;;0.10;99.90;;;;;;5135497;27;20167;-65
2021/04/07 03:24:22;;;;;;;2.33;1.20;;;0.00;99.90;;;;;;5134597;27;20202;-65
2021/04/07 03:26:48;;;;;;;1.23;1.13;;;0.00;99.90;;;;;;5135210;27;20175;-66
2021/04/07 03:29:13;;;;;;;0.97;0.97;;;0.10;99.90;;;;;;5134904;27;20209;-65
2021/04/07 03:31:39;;;;;;;3.50;0.87;;;0.30;99.90;;;;;;5116381;27;20174;-67
2021/04/07 03:34:04;;;;;;;1.20;1.00;;;0.30;99.90;;;;;;5116395;27;20199;-67
2021/04/07 03:36:30;;;;;;;0.87;0.60;;;0.30;99.90;;;;;;5135089;27;20202;-65
2021/04/07 03:38:55;;;;;;;1.60;1.17;;;0.30;99.90;;;;;;5134689;27;20289;-66
2021/04/07 03:41:21;;;;;;;1.20;1.10;;;0.30;99.90;;;;;;5135066;27;20624;-65
2021/04/07 03:43:47;;;;;;;1.70;1.60;;;0.30;99.90;;;;;;5134663;27;20542;-65
2021/04/07 03:46:15;;;;;;;1.43;1.30;;;0.30;99.90;;;;;;5133590;27;20194;-67
2021/04/07 03:48:41;;;;;;;1.35;1.25;;;0.30;99.90;;;;;;5133311;28;20243;-65
2021/04/07 03:51:06;;;;;;;1.03;1.03;;;0.30;99.90;;;;;;5133642;28;20262;-65
2021/04/07 03:53:32;;;;;;;1.67;1.40;;;0.30;99.90;;;;;;5134027;28;20187;-65
2021/04/07 03:55:58;;;;;;;0.93;0.83;;;0.30;99.90;;;;;;5115904;28;20222;-67
2021/04/07 03:58:24;;;;;;;1.98;1.02;;;0.20;99.90;;;;;;5134508;28;20323;-66
2021/04/07 04:00:51;;;;;;;1.35;1.25;;;0.30;99.90;;;;;;5132959;28;20171;-67
2021/04/07 04:03:16;;;;;;;2.13;1.85;;;0.20;99.90;;;;;;5132213;28;20287;-66
2021/04/07 04:05:42;;;;;;;5.35;3.10;;;0.20;99.90;;;;;;5132416;28;20198;-66
2021/04/07 04:08:08;;;;;;;1.47;1.07;;;0.10;99.90;;;;;;5132297;28;20197;-65
2021/04/07 04:10:34;;;;;;;2.13;1.93;;;0.00;99.90;;;;;;5132144;28;20437;-68
2021/04/07 04:13:01;;;;;;;3.47;1.60;;;0.00;99.90;;;;;;5113782;28;20199;-66
2021/04/07 04:15:26;;;;;;;5.47;2.17;;;0.00;99.90;;;;;;5132147;28;20266;-66
2021/04/07 04:17:52;;;;;;;1.67;1.27;;;0.00;99.90;;;;;;5134116;28;20274;-66
2021/04/07 04:20:18;;;;;;;1.85;1.63;;;0.10;99.90;;;;;;5113357;28;20203;-65
2021/04/07 04:22:44;;;;;;;3.90;2.97;;;0.00;99.90;;;;;;5122477;28;20263;-66
2021/04/07 04:25:16;;;;;;;2.88;2.22;;;0.00;99.90;;;;;;5129225;28;20194;-65
2021/04/07 04:27:42;;;;;;;9.70;4.80;;;0.00;99.90;;;;;;5113659;28;20263;-66
2021/04/07 04:30:11;;;;;;;1.87;1.63;;;0.00;99.90;;;;;;5120838;28;20262;-65
2021/04/07 04:32:36;;;;;;;2.90;2.38;;;0.00;99.90;;;;;;5121146;28;20451;-65
2021/04/07 04:35:03;;;;;;;0.37;0.33;;;0.10;99.90;;;;;;5121827;27;20182;-66
2021/04/07 04:37:29;;;;;;;1.85;1.75;;;0.60;99.90;;;;;;5130497;27;20218;-65
2021/04/07 04:39:55;;;;;;;2.67;1.17;;;1.80;99.90;;;;;;5123758;27;20180;-66
2021/04/07 04:42:20;;;;;;;0.50;0.50;;;2.10;99.90;;;;;;5117460;28;20195;-66
2021/04/07 04:44:46;;;;;;;1.80;1.70;;;2.20;99.90;;;;;;5121245;27;20235;-66
2021/04/07 04:47:11;;;;;;;1.37;0.73;;;2.90;99.90;;;;;;5124636;27;20175;-66
2021/04/07 04:49:37;;;;;;;2.43;0.87;;;3.40;99.90;;;;;;5128944;27;20698;-67
2021/04/07 04:52:03;;;;;;;2.60;2.07;;;3.80;99.90;;;;;;5107576;27;20175;-65
2021/04/07 04:54:28;;;;;;;6.93;3.37;;;4.10;99.90;;;;;;5104784;27;20198;-66
2021/04/07 04:56:54;;;;;;;1.47;1.40;;;4.20;99.90;;;;;;5122903;27;21024;-67
2021/04/07 04:59:20;;;;;;;0.47;0.47;;;4.30;99.90;;;;;;5127737;27;20681;-66
2021/04/07 05:01:45;;;;;;;1.23;0.90;;;4.30;99.90;;;;;;5109831;27;20518;-65
2021/04/07 05:04:11;;;;;;;2.07;0.97;;;4.20;99.90;;;;;;5133106;27;20206;-65
2021/04/07 05:06:37;;;;;;;2.10;1.47;;;4.20;99.90;;;;;;5098505;28;20203;-67
2021/04/07 05:09:03;;;;;;;3.17;2.60;;;2.30;99.90;;;;;;5107161;27;20264;-65
2021/04/07 05:11:32;;;;;;;1.77;1.65;;;1.50;99.90;;;;;;5121963;27;20423;-65
2021/04/07 05:14:01;;;;;;;1.90;1.80;;;1.30;99.90;;;;;;5137378;27;20206;-66
2021/04/07 05:16:27;;;;;;;3.38;2.20;;;1.30;99.90;;;;;;5137240;27;20199;-66
2021/04/07 05:18:53;;;;;;;1.77;1.45;;;1.30;99.90;;;;;;5130539;27;20223;-65
2021/04/07 05:21:19;;;;;;;5.83;4.00;;;1.20;99.90;;;;;;5125533;27;20172;-65
2021/04/07 05:23:44;;;;;;;1.60;1.40;;;1.20;99.90;;;;;;5128114;27;20195;-67
2021/04/07 05:26:10;;;;;;;5.07;2.53;;;1.30;99.90;;;;;;5132611;27;20944;-65
2021/04/07 05:28:36;;;;;;;1.83;1.63;;;1.30;99.90;;;;;;5121783;27;20204;-65
2021/04/07 05:31:02;;;;;;;2.10;1.90;;;1.40;99.90;;;;;;5124283;27;20183;-65
2021/04/07 05:33:33;;;;;;;2.00;1.85;;;1.40;99.90;;;;;;5109015;28;20294;-66
2021/04/07 05:36:07;;;;;;;6.95;2.65;;;1.40;99.90;;;;;;5116064;28;20700;-65
2021/04/07 05:38:34;;;;;;;2.72;1.83;;;1.50;99.90;;;;;;5128486;27;20199;-65
2021/04/07 05:41:00;;;;;;;1.77;1.52;;;1.80;99.90;;;;;;5112477;27;20168;-65
2021/04/07 05:43:27;;;;;;;1.55;1.45;;;1.90;99.90;;;;;;5111378;28;20204;-65
2021/04/07 05:45:53;;;;;;;1.95;1.45;;;2.00;99.90;;;;;;5128127;27;20629;-65
2021/04/07 05:48:19;;;;;;;5.60;4.33;;;2.00;99.90;;;;;;5133559;27;20292;-66
2021/04/07 05:50:50;;;;;;;4.20;1.43;;;2.00;99.90;;;;;;5117452;27;20575;-67
2021/04/07 05:53:16;;;;;;;2.60;2.38;;;2.20;99.90;;;;;;5123461;27;20447;-66
2021/04/07 05:55:47;;;;;;;4.13;2.80;;;2.20;99.90;;;;;;5120932;27;20182;-65
2021/04/07 05:58:13;;;;;;;3.97;3.28;;;2.30;99.90;;;;;;5104622;28;20234;-66
2021/04/07 06:00:39;;;;;;;3.15;1.85;;;2.30;99.90;;;;;;5115017;27;20179;-65
2021/04/07 06:03:06;;;;;;;3.53;2.75;;;2.40;99.90;;;;;;5109864;27;20213;-67
2021/04/07 06:05:33;;;;;;;3.63;2.08;;;2.50;99.90;;;;;;5123690;27;20183;-65
2021/04/07 06:07:59;;;;;;;3.55;2.92;;;2.60;99.90;;;;;;5106056;27;20206;-67
2021/04/07 06:10:27;;;;;;;2.72;2.13;;;2.70;99.90;;;;;;5095155;27;20179;-66
2021/04/07 06:12:54;;;;;;;1.88;1.50;;;2.80;99.90;;;;;;5127580;27;20434;-66
2021/04/07 06:15:20;;;;;;;3.65;1.98;;;2.90;99.90;;;;;;5123036;27;20633;-66
2021/04/07 06:18:06;;;;;;;2.45;1.60;;;2.90;99.90;;;;;;5120724;27;20272;-67
2021/04/07 06:20:34;;;;;;;4.97;2.65;;;3.00;99.90;;;;;;5101292;28;20270;-65
2021/04/07 06:23:00;;;;;;;2.85;2.53;;;3.10;99.90;;;;;;5120460;27;20192;-65
2021/04/07 06:25:27;;;;;;;2.28;2.05;;;3.30;99.90;;;;;;5098349;27;20206;-66
2021/04/07 06:27:54;;;;;;;5.70;4.05;;;3.30;99.90;;;;;;5114752;27;20295;-65
2021/04/07 06:30:24;;;;;;;4.38;2.60;;;3.50;99.90;;;;;;5118803;27;20186;-67
2021/04/07 06:32:53;;;;;;;4.07;1.90;;;3.50;99.90;;;;;;5119724;27;20574;-65
2021/04/07 06:35:18;;;;;;;4.50;3.35;;;3.70;99.90;;;;;;5119766;27;20176;-67
2021/04/07 06:37:44;;;;;;;2.07;1.97;;;3.90;99.90;;;;;;5115646;27;20322;-66
2021/04/07 06:40:10;;;;;;;4.80;3.30;;;3.90;99.90;;;;;;5110409;28;20175;-66
2021/04/07 06:42:36;;;;;;;3.25;2.92;;;4.00;99.90;;;;;;5114215;27;20186;-66
2021/04/07 06:45:03;;;;;;;4.30;3.47;;;4.20;99.90;;;;;;5110363;28;20176;-65
2021/04/07 06:47:28;;;;;;;6.22;4.18;;;4.20;99.90;;;;;;5119394;27;20446;-66
2021/04/07 06:49:54;;;;;;;3.73;2.83;;;4.30;99.90;;;;;;5123762;27;20231;-66
2021/04/07 06:52:22;;;;;;;2.43;2.23;;;4.40;99.90;;;;;;5122785;27;20195;-66
2021/04/07 06:54:51;;;;;;;3.90;3.03;;;4.50;99.90;;;;;;5114689;27;20495;-65
2021/04/07 06:57:17;;;;;;;4.18;3.78;;;4.60;99.90;;;;;;5115790;27;20253;-67
2021/04/07 06:59:44;;;;;;;6.10;3.40;;;4.80;99.90;;;;;;5112322;27;20740;-66
2021/04/07 07:02:11;;;;;;;3.42;2.65;;;4.90;99.90;;;;;;5112005;27;20494;-68
2021/04/07 07:04:37;;;;;;;2.92;2.35;;;4.80;99.90;;;;;;5113313;27;20206;-65
2021/04/07 07:07:04;;;;;;;2.55;2.35;;;5.10;99.90;;;;;;5106835;27;20291;-66
2021/04/07 07:09:29;;;;;;;1.70;1.60;;;5.20;99.90;;;;;;5116394;27;20192;-67
2021/04/07 07:11:55;;;;;;;2.90;2.17;;;5.30;99.90;;;;;;5107854;27;20676;-68
2021/04/07 07:14:21;;;;;;;5.43;2.13;;;5.60;99.90;;;;;;5122952;27;20213;-67
2021/04/07 07:16:51;;;;;;;2.27;2.10;;;5.80;99.90;;;;;;5118406;27;20471;-67
2021/04/07 07:19:31;;;;;;;3.38;3.08;;;5.90;99.90;;;;;;5099181;28;20236;-66
2021/04/07 07:21:58;;;;;;;4.70;3.42;;;5.90;99.90;;;;;;5128728;27;20172;-67
2021/04/07 07:24:38;;;;;;;7.47;3.05;;;6.10;99.90;;;;;;5121021;27;20298;-66
2021/04/07 07:27:07;;;;;;;3.22;2.55;;;6.20;99.90;;;;;;5096667;28;20172;-67
2021/04/07 07:29:38;;;;;;;3.83;2.60;;;6.20;99.90;;;;;;5121581;27;20211;-66
2021/04/07 07:32:08;;;;;;;1.65;1.55;;;6.40;99.90;;;;;;5119925;27;20254;-65
2021/04/07 07:34:34;;;;;;;7.82;3.17;;;6.70;99.90;;;;;;5117323;28;20203;-67
2021/04/07 07:37:02;;;;;;;11.95;7.97;;;6.80;99.90;;;;;;5124403;27;20599;-66
2021/04/07 07:39:30;;;;;;;5.13;2.78;;;6.90;99.90;;;;;;5123191;27;20195;-66
2021/04/07 07:42:01;;;;;;;6.60;4.03;;;7.00;99.90;;;;;;5125387;27;20185;-66
2021/04/07 07:44:29;;;;;;;6.68;4.55;;;7.20;99.90;;;;;;5118934;27;20692;-66
2021/04/07 07:47:06;;;;;;;4.28;2.38;;;7.30;99.90;;;;;;5105355;28;20186;-68
2021/04/07 07:49:32;;;;;;;5.45;3.35;;;7.40;99.90;;;;;;5104928;28;20329;-66
2021/04/07 07:51:58;;;;;;;4.57;4.13;;;7.50;99.90;;;;;;5117674;28;20278;-67
2021/04/07 07:54:25;;;;;;;4.90;3.60;;;7.70;99.90;;;;;;5121671;28;20251;-68
2021/04/07 07:56:52;;;;;;;5.93;3.42;;;7.90;99.90;;;;;;5115554;28;20677;-66
2021/04/07 07:59:33;;;;;;;5.78;3.25;;;7.90;97.80;;;;;;5120779;28;20211;-67
2021/04/07 08:01:59;;;;;;;2.30;2.05;;;8.10;96.40;;;;;;5116264;28;20187;-68
2021/04/07 08:04:25;;;;;;;3.30;3.00;;;8.30;95.80;;;;;;5114404;28;20206;-66
2021/04/07 08:06:52;;;;;;;5.15;3.38;;;8.30;95.70;;;;;;5117098;28;20192;-68
2021/04/07 08:09:18;;;;;;;5.18;3.47;;;8.40;94.70;;;;;;5101731;28;20214;-68
2021/04/07 08:11:46;;;;;;;4.37;3.97;;;8.40;93.10;;;;;;5111386;28;20183;-66
2021/04/07 08:14:17;;;;;;;5.25;3.25;;;8.40;93.20;;;;;;5118121;27;20195;-65
2021/04/07 08:16:44;;;;;;;5.53;3.67;;;8.70;91.50;;;;;;5110978;28;20692;-66
2021/04/07 08:19:14;;;;;;;3.35;2.20;;;8.40;89.70;;;;;;5109912;27;20205;-66
2021/04/07 08:21:45;;;;;;;2.60;2.40;;;8.70;90.20;;;;;;5113190;27;20283;-65
2021/04/07 08:24:12;;;;;;;3.00;2.70;;;8.90;89.10;;;;;;5101764;27;20204;-65
2021/04/07 08:26:42;;;;;;;4.15;2.70;;;8.90;85.80;;;;;;5131531;27;20179;-68
2021/04/07 08:29:08;;;;;;;3.03;2.20;;;9.00;86.60;;;;;;5117329;27;20252;-67
2021/04/07 08:31:36;;;;;;;4.95;3.13;;;9.20;88.10;;;;;;5125455;27;20194;-67
2021/04/07 08:34:04;;;;;;;5.72;3.38;;;9.40;88.00;;;;;;5103211;28;20204;-66
2021/04/07 08:36:30;;;;;;;3.15;2.45;;;9.60;85.90;;;;;;5102828;27;20210;-66
2021/04/07 08:39:17;;;;;;;5.43;3.00;;;9.40;83.20;;;;;;5117762;27;20202;-65
2021/04/07 08:41:45;;;;;;;4.10;2.05;;;9.60;80.80;;;;;;5124872;27;20599;-69
2021/04/07 08:44:11;;;;;;;4.18;2.70;;;9.90;78.40;;;;;;5120827;27;20203;-67
2021/04/07 08:46:46;;;;;;;2.72;2.03;;;10.80;74.80;;;;;;5105841;27;20670;-68
2021/04/07 08:49:41;;;;;;;3.08;2.47;;;11.30;74.60;;;;;;5112854;27;20239;-67
2021/04/07 08:52:20;;;;;;;4.82;3.20;;;11.90;70.70;;;;;;5117747;27;20514;-66
2021/04/07 08:54:48;;;;;;;1.73;1.63;;;11.90;70.50;;;;;;5120826;27;20214;-68
2021/04/07 08:57:34;;;;;;;2.50;2.30;;;12.90;68.30;;;;;;5117777;27;20207;-68
2021/04/07 09:00:04;;;;;;;2.80;2.57;;;13.60;64.50;;;;;;5118616;27;20557;-68
2021/04/07 09:02:30;;;;;;;5.63;2.77;;;13.50;64.10;;;;;;5120525;27;20777;-66
2021/04/07 09:05:02;;;;;;;5.10;2.63;;;12.70;63.60;;;;;;5122170;27;20838;-68
2021/04/07 09:07:45;;;;;;;2.10;1.80;;;12.60;64.70;;;;;;5105994;28;20455;-66
2021/04/07 09:10:19;;;;;;;3.30;2.63;;;12.70;62.60;;;;;;5119710;27;20423;-66
2021/04/07 09:12:49;;;;;;;4.10;2.80;;;12.10;57.80;;;;;;5126833;27;20435;-66
2021/04/07 09:15:19;;;;;;;4.63;2.63;;;12.00;60.30;;;;;;5106258;27;20423;-68
2021/04/07 09:17:51;;;;;;;2.30;2.10;;;11.90;62.50;;;;;;5122655;27;20832;-68
2021/04/07 09:20:46;;;;;;;3.80;2.60;;;12.00;61.60;;;;;;5121870;27;20436;-66
2021/04/07 09:23:45;;;;;;;3.43;2.23;;;12.00;62.30;;;;;;5123263;27;20472;-67
2021/04/07 09:26:14;;;;;;;9.03;2.57;;;12.50;62.30;;;;;;5089829;27;20440;-66
2021/04/07 09:28:48;;;;;;;2.40;1.93;;;12.60;60.20;;;;;;5120680;27;20447;-67
2021/04/07 09:31:22;;;;;;;3.70;2.83;;;12.60;60.00;;;;;;5118212;27;20526;-68
2021/04/07 09:33:49;;;;;;;1.93;1.73;;;12.90;59.90;;;;;;5102911;28;20447;-68
2021/04/07 09:36:17;;;;;;;4.10;2.83;;;13.10;59.50;;;;;;5112451;27;20983;-68
2021/04/07 09:38:48;;;;;;;4.50;2.10;;;13.20;59.70;;;;;;5096379;27;20481;-66
2021/04/07 09:41:19;;;;;;;5.83;2.73;;;13.30;58.90;;;;;;5105578;27;20431;-68
2021/04/07 09:43:45;;;;;;;3.77;2.20;;;13.20;58.80;;;;;;5127827;27;20443;-68
2021/04/07 09:46:11;;;;;;;4.13;2.80;;;12.80;58.00;;;;;;5107817;27;20802;-67
2021/04/07 09:48:48;;;;;;;4.77;2.33;;;12.30;58.80;;;;;;5107504;28;20956;-67
2021/04/07 09:51:22;;;;;;;3.97;3.10;;;12.00;57.90;;;;;;5124425;27;20529;-66
2021/04/07 09:53:49;;;;;;;2.73;2.30;;;11.80;58.30;;;;;;5125502;27;20439;-68
2021/04/07 09:56:14;;;;;;;2.90;2.53;;;12.10;59.20;;;;;;5117216;27;21122;-68
2021/04/07 09:58:50;;;;;;;1.90;1.60;;;12.60;58.10;;;;;;5113514;28;20759;-66
2021/04/07 10:01:17;;;;;;;2.97;2.17;;;13.00;57.30;;;;;;5114460;27;20186;-66
2021/04/07 10:03:49;;;;;;;5.00;3.80;;;13.00;57.90;;;;;;5114434;27;20466;-68
2021/04/07 10:06:23;;;;;;;3.00;2.47;;;12.40;58.30;;;;;;5096954;28;20851;-66
2021/04/07 10:08:59;;;;;;;3.83;3.10;;;11.90;58.50;;;;;;5115608;27;20441;-66
2021/04/07 10:11:26;;;;;;;2.47;2.10;;;12.10;59.30;;;;;;5100396;27;20418;-67
2021/04/07 10:13:54;;;;;;;1.83;1.73;;;12.70;59.80;;;;;;5115884;27;20505;-66
2021/04/07 10:16:23;;;;;;;2.07;1.93;;;12.80;59.10;;;;;;5118402;27;20879;-70
2021/04/07 10:18:49;;;;;;;2.10;1.90;;;13.00;57.90;;;;;;5105050;27;20440;-66
2021/04/07 10:21:16;;;;;;;3.77;2.40;;;13.60;57.00;;;;;;5115067;27;20495;-67
2021/04/07 10:23:43;;;;;;;3.80;2.20;;;12.90;55.50;;;;;;5103633;28;20987;-68
2021/04/07 10:26:10;;;;;;;2.77;2.30;;;12.80;57.60;;;;;;5119453;27;20424;-68
2021/04/07 10:28:35;;;;;;;3.27;2.00;;;13.00;57.60;;;;;;5114853;27;20462;-66
2021/04/07 10:31:08;;;;;;;4.43;2.60;;;13.30;57.90;;;;;;5121322;27;20781;-69
2021/04/07 10:33:33;;;;;;;3.10;1.90;;;13.00;54.60;;;;;;5104514;27;20196;-67
2021/04/07 10:36:02;;;;;;;2.50;2.20;;;12.20;55.00;;;;;;5116519;27;20431;-67
2021/04/07 10:38:33;;;;;;;1.47;1.37;;;11.70;54.50;;;;;;5119744;27;20211;-66
2021/04/07 10:41:05;;;;;;;3.07;1.80;;;11.90;55.70;;;;;;5117209;27;20412;-68
2021/04/07 10:43:39;;;;;;;5.80;1.73;;;12.70;56.40;;;;;;5114994;27;20542;-66
2021/04/07 10:46:07;;;;;;;6.07;2.53;;;13.30;57.50;;;;;;5109642;27;20455;-66
2021/04/07 10:48:33;;;;;;;3.50;2.43;;;13.60;56.70;;;;;;5113998;27;20872;-67
2021/04/07 10:50:59;;;;;;;2.50;2.17;;;12.90;55.70;;;;;;5116967;27;20447;-68
2021/04/07 10:53:33;;;;;;;4.07;2.60;;;12.50;57.10;;;;;;5119359;27;20811;-67
2021/04/07 10:56:00;;;;;;;2.30;2.07;;;13.10;56.50;;;;;;5115192;27;20422;-67
2021/04/07 10:58:29;;;;;;;2.23;2.10;;;13.40;54.20;;;;;;5115600;27;20455;-66
2021/04/07 11:00:55;;;;;;;5.00;2.70;;;13.50;54.20;;;;;;5121894;27;20425;-66
2021/04/07 11:03:32;;;;;;;3.97;3.57;;;13.00;53.90;;;;;;5118055;27;20802;-65
2021/04/07 11:05:57;;;;;;;6.87;4.10;;;12.20;54.50;;;;;;5118911;27;20416;-66
2021/04/07 11:08:34;;;;;;;3.40;2.80;;;11.80;55.90;;;;;;5124538;27;20535;-66
2021/04/07 11:11:00;;;;;;;4.20;3.63;;;12.00;57.10;;;;;;5123166;27;20533;-67
2021/04/07 11:13:26;;;;;;;3.70;2.37;;;12.20;58.10;;;;;;5112898;27;20447;-68
2021/04/07 11:15:52;;;;;;;2.50;1.87;;;12.20;56.20;;;;;;5121425;27;20793;-67
2021/04/07 11:18:28;;;;;;;3.80;2.00;;;12.40;56.90;;;;;;5117447;27;20457;-66
2021/04/07 11:20:53;;;;;;;2.87;2.00;;;12.80;55.70;;;;;;5119276;27;20715;-67
2021/04/07 11:23:19;;;;;;;2.40;1.67;;;12.80;54.20;;;;;;5116187;27;20462;-66
2021/04/07 11:25:47;;;;;;;2.63;2.20;;;13.10;54.90;;;;;;5119625;27;20183;-68
2021/04/07 11:28:20;;;;;;;3.47;2.60;;;13.30;55.30;;;;;;5113663;27;20199;-66
2021/04/07 11:31:08;;;;;;;4.43;2.33;;;12.80;54.00;;;;;;5119888;27;20470;-67
2021/04/07 11:33:39;;;;;;;3.13;2.17;;;12.20;54.70;;;;;;5119920;27;20458;-66
2021/04/07 11:38:45;;;;;;;3.67;2.13;;;11.60;55.20;;;;;;5110337;27;20455;-66
2021/04/07 11:46:25;;;;;;;2.90;2.40;;;11.70;55.50;;;;;;5111613;27;20676;-67
2021/04/07 11:48:51;;;;;;;2.50;1.70;;;11.60;55.90;;;;;;5113257;27;20855;-67
2021/04/07 11:51:18;;;;;;;1.83;1.67;;;11.60;57.30;;;;;;5108286;28;20187;-65
2021/04/07 11:53:47;;;;;;;2.40;2.07;;;11.60;55.70;;;;;;5093474;28;20459;-66
2021/04/07 11:56:13;;;;;;;1.93;1.80;;;11.70;55.80;;;;;;5116501;28;20499;-67
2021/04/07 11:58:39;;;;;;;4.05;2.00;;;12.20;55.70;;;;;;5116225;28;20465;-66
2021/04/07 12:01:05;;;;;;;2.13;1.90;;;12.10;54.70;;;;;;5121022;28;20316;-66
2021/04/07 12:03:31;;;;;;;2.00;1.70;;;12.00;54.90;;;;;;5122266;28;20656;-65
2021/04/07 12:05:57;;;;;;;3.50;3.20;;;11.70;55.10;;;;;;5118940;28;20179;-66
2021/04/07 12:08:23;;;;;;;4.50;2.10;;;11.40;55.30;;;;;;5114222;28;20448;-66
2021/04/07 12:10:49;;;;;;;2.03;1.53;;;11.30;55.10;;;;;;5113542;28;20191;-66
2021/04/07 12:13:14;;;;;;;2.03;1.73;;;11.70;55.40;;;;;;5121249;28;20458;-66
2021/04/07 12:15:40;;;;;;;2.00;1.37;;;11.60;51.90;;;;;;5113654;28;20572;-67
2021/04/07 12:18:06;;;;;;;1.70;0.93;;;11.90;52.60;;;;;;5119150;28;20218;-66
2021/04/07 12:20:33;;;;;;;1.90;1.40;;;12.50;52.40;;;;;;5120380;28;20428;-66
2021/04/07 12:23:00;;;;;;;1.63;1.40;;;13.00;51.80;;;;;;5097438;28;20474;-65
2021/04/07 12:25:26;;;;;;;3.53;1.53;;;12.50;51.20;;;;;;5123316;28;20403;-66
2021/04/07 12:27:51;;;;;;;2.13;1.80;;;12.20;49.50;;;;;;5127264;28;21514;-66
2021/04/07 12:30:19;;;;;;;9.37;3.40;;;12.00;49.90;;;;;;5108099;28;20273;-67
2021/04/07 12:32:45;;;;;;;1.80;1.48;;;11.60;51.40;;;;;;5118662;28;20735;-66
2021/04/07 12:35:12;;;;;;;1.33;0.97;;;11.70;52.10;;;;;;5112032;28;20188;-66
2021/04/07 12:37:57;;;;;;;1.53;1.27;;;11.80;52.40;;;;;;5076208;28;20232;-66
2021/04/07 12:40:22;;;;;;;6.20;1.80;;;11.80;52.70;;;;;;5084722;28;20436;-65
2021/04/07 12:42:48;;;;;;;1.80;1.43;;;11.70;53.40;;;;;;5076570;28;20734;-65
2021/04/07 12:45:14;;;;;;;2.10;1.27;;;11.90;53.10;;;;;;5077088;28;20208;-68
2021/04/07 12:47:40;;;;;;;1.20;1.10;;;12.00;51.90;;;;;;5082079;28;20275;-68
2021/04/07 12:50:06;;;;;;;1.47;1.37;;;11.80;51.60;;;;;;5075311;28;20355;-66
2021/04/07 12:52:32;;;;;;;1.35;1.25;;;11.90;52.50;;;;;;5087388;28;20211;-66
2021/04/07 12:54:57;;;;;;;1.40;1.13;;;11.90;53.10;;;;;;5080484;28;20527;-67
2021/04/07 12:57:23;;;;;;;2.50;1.60;;;12.00;52.70;;;;;;5068410;28;20236;-67
2021/04/07 12:59:52;;;;;;;1.70;1.40;;;11.80;52.90;;;;;;5089458;28;20702;-67
2021/04/07 13:02:18;;;;;;;2.50;1.40;;;11.50;53.30;;;;;;5082368;28;20184;-67
2021/04/07 13:04:43;;;;;;;1.33;1.23;;;11.10;53.90;;;;;;5072306;28;20738;-67